sensor_id;sensor_type;location;lat;lon;timestamp;P1;durP1;ratioP1;P2;durP2;ratioP2
3712;SDS011;1872;51.406;6.856;2023-02-01T00:02:08;18.23;;;7.70;;
3712;SDS011;1872;51.406;6.856;2023-02-01T00:04:36;14.03;;;7.90;;
3712;SDS011;1872;51.406;6.856;2023-02-01T00:07:02;10.90;;;7.03;;
3712;SDS011;1872;51.406;6.856;2023-02-01T00:09:28;11.87;;;7.43;;
3712;SDS011;1872;51.406;6.856;2023-02-01T00:11:53;13.57;;;7.40;;
3712;SDS011;1872;51.406;6.856;2023-02-01T00:14:19;12.47;;;6.83;;
3712;SDS011;1872;51.406;6.856;2023-02-01T00:16:45;12.33;;;5.93;;
3712;SDS011;1872;51.406;6.856;2023-02-01T00:19:11;12.67;;;6.27;;
3712;SDS011;1872;51.406;6.856;2023-02-01T00:21:39;11.60;;;6.20;;
3712;SDS011;1872;51.406;6.856;2023-02-01T00:24:05;13.23;;;6.10;;
3712;SDS011;1872;51.406;6.856;2023-02-01T00:29:14;9.57;;;6.20;;
3712;SDS011;1872;51.406;6.856;2023-02-01T00:31:42;10.70;;;6.13;;
3712;SDS011;1872;51.406;6.856;2023-02-01T00:34:11;9.60;;;5.50;;
3712;SDS011;1872;51.406;6.856;2023-02-01T00:36:39;9.80;;;5.90;;
3712;SDS011;1872;51.406;6.856;2023-02-01T00:39:06;14.63;;;5.70;;
3712;SDS011;1872;51.406;6.856;2023-02-01T00:41:34;11.80;;;6.60;;
3712;SDS011;1872;51.406;6.856;2023-02-01T00:44:00;11.33;;;6.77;;
3712;SDS011;1872;51.406;6.856;2023-02-01T00:46:28;12.07;;;7.07;;
3712;SDS011;1872;51.406;6.856;2023-02-01T00:48:54;11.40;;;6.97;;
3712;SDS011;1872;51.406;6.856;2023-02-01T00:51:21;12.83;;;6.87;;
3712;SDS011;1872;51.406;6.856;2023-02-01T00:53:50;9.47;;;6.43;;
3712;SDS011;1872;51.406;6.856;2023-02-01T00:56:16;11.27;;;7.90;;
3712;SDS011;1872;51.406;6.856;2023-02-01T00:58:45;16.10;;;9.00;;
3712;SDS011;1872;51.406;6.856;2023-02-01T01:01:15;14.70;;;8.13;;
3712;SDS011;1872;51.406;6.856;2023-02-01T01:03:52;11.60;;;8.80;;
3712;SDS011;1872;51.406;6.856;2023-02-01T01:06:21;13.93;;;8.80;;
3712;SDS011;1872;51.406;6.856;2023-02-01T01:08:50;20.80;;;8.97;;
3712;SDS011;1872;51.406;6.856;2023-02-01T01:11:19;15.30;;;8.53;;
3712;SDS011;1872;51.406;6.856;2023-02-01T01:13:47;18.97;;;10.43;;
3712;SDS011;1872;51.406;6.856;2023-02-01T01:16:17;18.53;;;10.83;;
3712;SDS011;1872;51.406;6.856;2023-02-01T01:18:44;14.53;;;9.53;;
3712;SDS011;1872;51.406;6.856;2023-02-01T01:21:12;12.07;;;8.60;;
3712;SDS011;1872;51.406;6.856;2023-02-01T01:23:41;19.53;;;10.77;;
3712;SDS011;1872;51.406;6.856;2023-02-01T01:26:09;16.00;;;9.77;;
3712;SDS011;1872;51.406;6.856;2023-02-01T01:28:41;15.03;;;9.53;;
3712;SDS011;1872;51.406;6.856;2023-02-01T01:31:10;16.20;;;7.87;;
3712;SDS011;1872;51.406;6.856;2023-02-01T01:33:40;11.27;;;8.07;;
3712;SDS011;1872;51.406;6.856;2023-02-01T01:36:06;12.37;;;7.57;;
3712;SDS011;1872;51.406;6.856;2023-02-01T01:38:38;10.97;;;7.90;;
3712;SDS011;1872;51.406;6.856;2023-02-01T01:41:05;11.50;;;8.30;;
3712;SDS011;1872;51.406;6.856;2023-02-01T01:43:46;13.17;;;7.87;;
3712;SDS011;1872;51.406;6.856;2023-02-01T01:46:18;14.90;;;8.70;;
3712;SDS011;1872;51.406;6.856;2023-02-01T01:48:47;12.40;;;7.27;;
3712;SDS011;1872;51.406;6.856;2023-02-01T01:51:15;13.80;;;7.10;;
3712;SDS011;1872;51.406;6.856;2023-02-01T01:53:52;9.97;;;6.73;;
3712;SDS011;1872;51.406;6.856;2023-02-01T01:56:31;12.90;;;8.10;;
3712;SDS011;1872;51.406;6.856;2023-02-01T01:59:01;16.53;;;6.67;;
3712;SDS011;1872;51.406;6.856;2023-02-01T02:01:30;13.57;;;6.53;;
3712;SDS011;1872;51.406;6.856;2023-02-01T02:03:59;10.47;;;6.27;;
3712;SDS011;1872;51.406;6.856;2023-02-01T02:08:55;12.07;;;6.00;;
3712;SDS011;1872;51.406;6.856;2023-02-01T02:11:21;9.60;;;6.03;;
3712;SDS011;1872;51.406;6.856;2023-02-01T02:13:50;9.73;;;5.07;;
3712;SDS011;1872;51.406;6.856;2023-02-01T02:21:30;9.53;;;4.83;;
3712;SDS011;1872;51.406;6.856;2023-02-01T02:27:00;7.30;;;4.20;;
3712;SDS011;1872;51.406;6.856;2023-02-01T02:35:42;8.10;;;4.40;;
3712;SDS011;1872;51.406;6.856;2023-02-01T02:41:18;8.60;;;4.30;;
3712;SDS011;1872;51.406;6.856;2023-02-01T02:44:13;9.50;;;5.30;;
3712;SDS011;1872;51.406;6.856;2023-02-01T02:47:15;8.73;;;4.77;;
3712;SDS011;1872;51.406;6.856;2023-02-01T02:49:56;9.30;;;4.50;;
3712;SDS011;1872;51.406;6.856;2023-02-01T02:52:53;7.60;;;5.33;;
3712;SDS011;1872;51.406;6.856;2023-02-01T02:55:46;10.73;;;5.43;;
3712;SDS011;1872;51.406;6.856;2023-02-01T02:58:12;9.13;;;4.80;;
3712;SDS011;1872;51.406;6.856;2023-02-01T03:01:01;7.80;;;4.53;;
3712;SDS011;1872;51.406;6.856;2023-02-01T03:03:47;9.30;;;5.10;;
3712;SDS011;1872;51.406;6.856;2023-02-01T03:06:32;13.73;;;4.77;;
3712;SDS011;1872;51.406;6.856;2023-02-01T03:08:58;15.70;;;5.53;;
3712;SDS011;1872;51.406;6.856;2023-02-01T03:11:31;10.83;;;5.00;;
3712;SDS011;1872;51.406;6.856;2023-02-01T03:14:19;9.47;;;5.40;;
3712;SDS011;1872;51.406;6.856;2023-02-01T03:16:49;7.00;;;4.97;;
3712;SDS011;1872;51.406;6.856;2023-02-01T03:22:07;10.40;;;4.70;;
3712;SDS011;1872;51.406;6.856;2023-02-01T03:30:13;12.00;;;5.33;;
3712;SDS011;1872;51.406;6.856;2023-02-01T03:32:48;9.23;;;5.00;;
3712;SDS011;1872;51.406;6.856;2023-02-01T03:35:26;7.93;;;5.00;;
3712;SDS011;1872;51.406;6.856;2023-02-01T03:40:52;11.20;;;4.87;;
3712;SDS011;1872;51.406;6.856;2023-02-01T03:43:25;16.87;;;5.70;;
3712;SDS011;1872;51.406;6.856;2023-02-01T03:45:58;12.97;;;5.43;;
3712;SDS011;1872;51.406;6.856;2023-02-01T03:48:27;11.37;;;4.53;;
3712;SDS011;1872;51.406;6.856;2023-02-01T03:50:57;10.70;;;5.63;;
3712;SDS011;1872;51.406;6.856;2023-02-01T03:53:28;12.13;;;5.23;;
3712;SDS011;1872;51.406;6.856;2023-02-01T03:55:55;13.87;;;6.80;;
3712;SDS011;1872;51.406;6.856;2023-02-01T03:58:22;10.63;;;5.07;;
3712;SDS011;1872;51.406;6.856;2023-02-01T04:00:58;10.00;;;5.30;;
3712;SDS011;1872;51.406;6.856;2023-02-01T04:03:26;10.70;;;4.70;;
3712;SDS011;1872;51.406;6.856;2023-02-01T04:05:52;16.13;;;5.80;;
3712;SDS011;1872;51.406;6.856;2023-02-01T04:08:19;11.27;;;5.67;;
3712;SDS011;1872;51.406;6.856;2023-02-01T04:10:47;10.80;;;5.53;;
3712;SDS011;1872;51.406;6.856;2023-02-01T04:13:13;10.60;;;6.13;;
3712;SDS011;1872;51.406;6.856;2023-02-01T04:15:39;16.63;;;6.83;;
3712;SDS011;1872;51.406;6.856;2023-02-01T04:18:05;13.60;;;5.83;;
3712;SDS011;1872;51.406;6.856;2023-02-01T04:20:31;11.27;;;5.83;;
3712;SDS011;1872;51.406;6.856;2023-02-01T04:22:57;12.20;;;5.40;;
3712;SDS011;1872;51.406;6.856;2023-02-01T04:25:23;8.80;;;4.83;;
3712;SDS011;1872;51.406;6.856;2023-02-01T04:27:51;15.53;;;6.60;;
3712;SDS011;1872;51.406;6.856;2023-02-01T04:30:16;18.70;;;6.40;;
3712;SDS011;1872;51.406;6.856;2023-02-01T04:32:42;10.57;;;5.20;;
3712;SDS011;1872;51.406;6.856;2023-02-01T04:35:08;12.17;;;5.10;;
3712;SDS011;1872;51.406;6.856;2023-02-01T04:37:36;14.40;;;5.43;;
3712;SDS011;1872;51.406;6.856;2023-02-01T04:40:02;8.47;;;5.10;;
3712;SDS011;1872;51.406;6.856;2023-02-01T04:42:28;9.60;;;4.83;;
3712;SDS011;1872;51.406;6.856;2023-02-01T04:44:57;13.87;;;5.97;;
3712;SDS011;1872;51.406;6.856;2023-02-01T04:47:22;9.67;;;5.20;;
3712;SDS011;1872;51.406;6.856;2023-02-01T04:49:50;10.80;;;4.50;;
3712;SDS011;1872;51.406;6.856;2023-02-01T04:52:18;7.07;;;4.60;;
3712;SDS011;1872;51.406;6.856;2023-02-01T04:54:46;10.13;;;4.90;;
3712;SDS011;1872;51.406;6.856;2023-02-01T04:57:14;12.93;;;5.80;;
3712;SDS011;1872;51.406;6.856;2023-02-01T04:59:42;16.90;;;4.87;;
3712;SDS011;1872;51.406;6.856;2023-02-01T05:02:08;9.70;;;4.40;;
3712;SDS011;1872;51.406;6.856;2023-02-01T05:04:34;10.93;;;4.30;;
3712;SDS011;1872;51.406;6.856;2023-02-01T05:07:02;9.43;;;5.47;;
3712;SDS011;1872;51.406;6.856;2023-02-01T05:09:30;16.00;;;5.73;;
3712;SDS011;1872;51.406;6.856;2023-02-01T05:11:58;7.40;;;4.37;;
3712;SDS011;1872;51.406;6.856;2023-02-01T05:14:49;12.10;;;4.37;;
3712;SDS011;1872;51.406;6.856;2023-02-01T05:17:15;12.07;;;4.50;;
3712;SDS011;1872;51.406;6.856;2023-02-01T05:19:43;7.63;;;4.90;;
3712;SDS011;1872;51.406;6.856;2023-02-01T05:22:09;11.47;;;4.33;;
3712;SDS011;1872;51.406;6.856;2023-02-01T05:24:37;10.13;;;4.27;;
3712;SDS011;1872;51.406;6.856;2023-02-01T05:27:02;12.97;;;4.47;;
3712;SDS011;1872;51.406;6.856;2023-02-01T05:29:29;12.23;;;5.00;;
3712;SDS011;1872;51.406;6.856;2023-02-01T05:32:02;11.40;;;5.10;;
3712;SDS011;1872;51.406;6.856;2023-02-01T05:34:28;12.20;;;5.03;;
3712;SDS011;1872;51.406;6.856;2023-02-01T05:36:54;11.10;;;4.63;;
3712;SDS011;1872;51.406;6.856;2023-02-01T05:39:22;7.40;;;4.13;;
3712;SDS011;1872;51.406;6.856;2023-02-01T05:41:47;14.87;;;5.27;;
3712;SDS011;1872;51.406;6.856;2023-02-01T05:44:13;16.60;;;4.80;;
3712;SDS011;1872;51.406;6.856;2023-02-01T05:46:39;6.80;;;4.80;;
3712;SDS011;1872;51.406;6.856;2023-02-01T05:49:05;11.37;;;5.53;;
3712;SDS011;1872;51.406;6.856;2023-02-01T05:51:30;17.90;;;5.03;;
3712;SDS011;1872;51.406;6.856;2023-02-01T05:53:56;12.03;;;5.00;;
3712;SDS011;1872;51.406;6.856;2023-02-01T05:56:22;14.07;;;5.50;;
3712;SDS011;1872;51.406;6.856;2023-02-01T05:58:48;9.13;;;4.60;;
3712;SDS011;1872;51.406;6.856;2023-02-01T06:01:16;13.53;;;4.33;;
3712;SDS011;1872;51.406;6.856;2023-02-01T06:03:41;15.73;;;5.63;;
3712;SDS011;1872;51.406;6.856;2023-02-01T06:06:10;17.73;;;6.20;;
3712;SDS011;1872;51.406;6.856;2023-02-01T06:08:35;14.37;;;5.80;;
3712;SDS011;1872;51.406;6.856;2023-02-01T06:11:02;9.40;;;5.37;;
3712;SDS011;1872;51.406;6.856;2023-02-01T06:13:33;11.83;;;5.10;;
3712;SDS011;1872;51.406;6.856;2023-02-01T06:16:02;10.37;;;5.20;;
3712;SDS011;1872;51.406;6.856;2023-02-01T06:18:28;8.40;;;4.40;;
3712;SDS011;1872;51.406;6.856;2023-02-01T06:20:56;11.67;;;5.20;;
3712;SDS011;1872;51.406;6.856;2023-02-01T06:23:27;14.50;;;5.37;;
3712;SDS011;1872;51.406;6.856;2023-02-01T06:26:00;12.27;;;4.80;;
3712;SDS011;1872;51.406;6.856;2023-02-01T06:28:30;10.83;;;4.93;;
3712;SDS011;1872;51.406;6.856;2023-02-01T06:30:57;13.70;;;5.37;;
3712;SDS011;1872;51.406;6.856;2023-02-01T06:33:25;13.63;;;5.13;;
3712;SDS011;1872;51.406;6.856;2023-02-01T06:35:57;6.80;;;4.73;;
3712;SDS011;1872;51.406;6.856;2023-02-01T06:38:24;9.67;;;4.80;;
3712;SDS011;1872;51.406;6.856;2023-02-01T06:40:54;11.03;;;5.90;;
3712;SDS011;1872;51.406;6.856;2023-02-01T06:43:23;11.63;;;5.07;;
3712;SDS011;1872;51.406;6.856;2023-02-01T06:45:51;11.87;;;4.57;;
3712;SDS011;1872;51.406;6.856;2023-02-01T06:48:17;9.97;;;5.40;;
3712;SDS011;1872;51.406;6.856;2023-02-01T06:50:43;9.93;;;4.63;;
3712;SDS011;1872;51.406;6.856;2023-02-01T06:53:09;12.63;;;4.87;;
3712;SDS011;1872;51.406;6.856;2023-02-01T06:55:35;14.87;;;5.60;;
3712;SDS011;1872;51.406;6.856;2023-02-01T06:58:01;11.47;;;4.73;;
3712;SDS011;1872;51.406;6.856;2023-02-01T07:00:28;9.00;;;4.80;;
3712;SDS011;1872;51.406;6.856;2023-02-01T07:02:56;11.50;;;4.50;;
3712;SDS011;1872;51.406;6.856;2023-02-01T07:05:28;9.43;;;4.43;;
3712;SDS011;1872;51.406;6.856;2023-02-01T07:07:53;9.60;;;4.53;;
3712;SDS011;1872;51.406;6.856;2023-02-01T07:10:19;8.50;;;4.90;;
3712;SDS011;1872;51.406;6.856;2023-02-01T07:12:45;11.97;;;4.50;;
3712;SDS011;1872;51.406;6.856;2023-02-01T07:15:13;7.53;;;4.90;;
3712;SDS011;1872;51.406;6.856;2023-02-01T07:17:38;10.97;;;4.57;;
3712;SDS011;1872;51.406;6.856;2023-02-01T07:20:04;11.73;;;5.97;;
3712;SDS011;1872;51.406;6.856;2023-02-01T07:22:30;13.50;;;4.60;;
3712;SDS011;1872;51.406;6.856;2023-02-01T07:24:58;8.53;;;4.80;;
3712;SDS011;1872;51.406;6.856;2023-02-01T07:27:24;7.13;;;4.13;;
3712;SDS011;1872;51.406;6.856;2023-02-01T07:29:50;10.07;;;5.37;;
3712;SDS011;1872;51.406;6.856;2023-02-01T07:32:17;14.30;;;5.00;;
3712;SDS011;1872;51.406;6.856;2023-02-01T07:34:43;16.83;;;5.40;;
3712;SDS011;1872;51.406;6.856;2023-02-01T07:37:10;12.73;;;5.87;;
3712;SDS011;1872;51.406;6.856;2023-02-01T07:39:35;16.00;;;6.53;;
3712;SDS011;1872;51.406;6.856;2023-02-01T07:42:01;10.10;;;5.20;;
3712;SDS011;1872;51.406;6.856;2023-02-01T07:44:27;11.70;;;5.97;;
3712;SDS011;1872;51.406;6.856;2023-02-01T07:46:53;17.43;;;6.43;;
3712;SDS011;1872;51.406;6.856;2023-02-01T07:49:18;9.50;;;4.77;;
3712;SDS011;1872;51.406;6.856;2023-02-01T07:51:44;12.80;;;5.80;;
3712;SDS011;1872;51.406;6.856;2023-02-01T07:54:09;7.00;;;4.20;;
3712;SDS011;1872;51.406;6.856;2023-02-01T07:56:35;14.30;;;4.50;;
3712;SDS011;1872;51.406;6.856;2023-02-01T07:59:01;12.73;;;5.53;;
3712;SDS011;1872;51.406;6.856;2023-02-01T08:01:27;9.97;;;4.20;;
3712;SDS011;1872;51.406;6.856;2023-02-01T08:03:57;18.90;;;5.40;;
3712;SDS011;1872;51.406;6.856;2023-02-01T08:06:25;15.03;;;5.80;;
3712;SDS011;1872;51.406;6.856;2023-02-01T08:08:51;7.70;;;4.67;;
3712;SDS011;1872;51.406;6.856;2023-02-01T08:11:19;9.00;;;4.60;;
3712;SDS011;1872;51.406;6.856;2023-02-01T08:13:46;10.17;;;4.30;;
3712;SDS011;1872;51.406;6.856;2023-02-01T08:16:13;6.63;;;4.30;;
3712;SDS011;1872;51.406;6.856;2023-02-01T08:18:40;11.33;;;5.23;;
3712;SDS011;1872;51.406;6.856;2023-02-01T08:21:11;7.93;;;4.27;;
3712;SDS011;1872;51.406;6.856;2023-02-01T08:23:39;13.87;;;4.60;;
3712;SDS011;1872;51.406;6.856;2023-02-01T08:26:10;11.73;;;4.57;;
3712;SDS011;1872;51.406;6.856;2023-02-01T08:28:37;14.70;;;5.97;;
3712;SDS011;1872;51.406;6.856;2023-02-01T08:31:07;9.97;;;4.70;;
3712;SDS011;1872;51.406;6.856;2023-02-01T08:33:34;10.30;;;5.70;;
3712;SDS011;1872;51.406;6.856;2023-02-01T08:36:03;8.43;;;4.50;;
3712;SDS011;1872;51.406;6.856;2023-02-01T08:38:29;13.20;;;6.03;;
3712;SDS011;1872;51.406;6.856;2023-02-01T08:40:55;13.80;;;5.53;;
3712;SDS011;1872;51.406;6.856;2023-02-01T08:43:21;8.20;;;4.40;;
3712;SDS011;1872;51.406;6.856;2023-02-01T08:45:49;13.23;;;5.40;;
3712;SDS011;1872;51.406;6.856;2023-02-01T08:48:19;11.50;;;5.50;;
3712;SDS011;1872;51.406;6.856;2023-02-01T08:50:46;14.90;;;7.00;;
3712;SDS011;1872;51.406;6.856;2023-02-01T08:53:12;14.33;;;5.60;;
3712;SDS011;1872;51.406;6.856;2023-02-01T08:55:39;14.27;;;6.47;;
3712;SDS011;1872;51.406;6.856;2023-02-01T08:58:04;14.40;;;5.20;;
3712;SDS011;1872;51.406;6.856;2023-02-01T09:00:30;13.70;;;6.30;;
3712;SDS011;1872;51.406;6.856;2023-02-01T09:02:56;16.73;;;7.00;;
3712;SDS011;1872;51.406;6.856;2023-02-01T09:05:24;9.10;;;5.33;;
3712;SDS011;1872;51.406;6.856;2023-02-01T09:07:52;10.53;;;5.47;;
3712;SDS011;1872;51.406;6.856;2023-02-01T09:10:18;16.53;;;5.50;;
3712;SDS011;1872;51.406;6.856;2023-02-01T09:12:44;15.60;;;5.13;;
3712;SDS011;1872;51.406;6.856;2023-02-01T09:15:09;13.77;;;5.47;;
3712;SDS011;1872;51.406;6.856;2023-02-01T09:17:35;15.90;;;5.50;;
3712;SDS011;1872;51.406;6.856;2023-02-01T09:20:02;12.57;;;5.60;;
3712;SDS011;1872;51.406;6.856;2023-02-01T09:22:28;17.97;;;6.17;;
3712;SDS011;1872;51.406;6.856;2023-02-01T09:24:54;18.27;;;6.23;;
3712;SDS011;1872;51.406;6.856;2023-02-01T09:27:20;16.20;;;5.30;;
3712;SDS011;1872;51.406;6.856;2023-02-01T09:29:49;9.03;;;5.40;;
3712;SDS011;1872;51.406;6.856;2023-02-01T09:32:24;12.70;;;6.50;;
3712;SDS011;1872;51.406;6.856;2023-02-01T09:34:50;11.40;;;6.20;;
3712;SDS011;1872;51.406;6.856;2023-02-01T09:37:19;14.70;;;6.67;;
3712;SDS011;1872;51.406;6.856;2023-02-01T09:39:45;14.43;;;5.97;;
3712;SDS011;1872;51.406;6.856;2023-02-01T09:47:34;9.90;;;5.73;;
3712;SDS011;1872;51.406;6.856;2023-02-01T09:50:19;16.47;;;6.07;;
3712;SDS011;1872;51.406;6.856;2023-02-01T09:55:46;11.77;;;5.63;;
3712;SDS011;1872;51.406;6.856;2023-02-01T09:58:20;16.03;;;4.83;;
3712;SDS011;1872;51.406;6.856;2023-02-01T10:01:08;11.37;;;5.63;;
3712;SDS011;1872;51.406;6.856;2023-02-01T10:03:41;16.30;;;6.53;;
3712;SDS011;1872;51.406;6.856;2023-02-01T10:25:56;13.27;;;5.47;;
3712;SDS011;1872;51.406;6.856;2023-02-01T10:28:36;10.90;;;5.90;;
3712;SDS011;1872;51.406;6.856;2023-02-01T10:31:03;9.83;;;5.97;;
3712;SDS011;1872;51.406;6.856;2023-02-01T10:33:34;5.83;;;4.90;;
3712;SDS011;1872;51.406;6.856;2023-02-01T10:36:23;12.10;;;6.33;;
3712;SDS011;1872;51.406;6.856;2023-02-01T10:39:04;10.43;;;5.67;;
3712;SDS011;1872;51.406;6.856;2023-02-01T10:41:33;13.67;;;5.07;;
3712;SDS011;1872;51.406;6.856;2023-02-01T10:44:07;18.70;;;6.10;;
3712;SDS011;1872;51.406;6.856;2023-02-01T10:46:40;10.47;;;6.17;;
3712;SDS011;1872;51.406;6.856;2023-02-01T10:49:12;8.53;;;4.90;;
3712;SDS011;1872;51.406;6.856;2023-02-01T10:52:04;10.73;;;5.63;;
3712;SDS011;1872;51.406;6.856;2023-02-01T10:54:56;13.30;;;5.70;;
3712;SDS011;1872;51.406;6.856;2023-02-01T10:57:41;10.30;;;6.47;;
3712;SDS011;1872;51.406;6.856;2023-02-01T11:00:20;13.30;;;5.97;;
3712;SDS011;1872;51.406;6.856;2023-02-01T11:02:49;8.57;;;5.77;;
3712;SDS011;1872;51.406;6.856;2023-02-01T11:05:15;15.03;;;5.93;;
3712;SDS011;1872;51.406;6.856;2023-02-01T11:07:48;14.63;;;5.87;;
3712;SDS011;1872;51.406;6.856;2023-02-01T11:13:11;12.03;;;5.97;;
3712;SDS011;1872;51.406;6.856;2023-02-01T11:15:43;7.60;;;5.53;;
3712;SDS011;1872;51.406;6.856;2023-02-01T11:18:17;11.37;;;6.03;;
3712;SDS011;1872;51.406;6.856;2023-02-01T11:20:46;11.53;;;6.17;;
3712;SDS011;1872;51.406;6.856;2023-02-01T11:23:21;11.00;;;5.33;;
3712;SDS011;1872;51.406;6.856;2023-02-01T11:25:51;13.87;;;5.50;;
3712;SDS011;1872;51.406;6.856;2023-02-01T11:28:20;13.03;;;5.97;;
3712;SDS011;1872;51.406;6.856;2023-02-01T11:30:53;13.30;;;5.80;;
3712;SDS011;1872;51.406;6.856;2023-02-01T11:33:24;11.17;;;5.20;;
3712;SDS011;1872;51.406;6.856;2023-02-01T11:35:55;16.90;;;6.20;;
3712;SDS011;1872;51.406;6.856;2023-02-01T11:38:27;10.60;;;5.70;;
3712;SDS011;1872;51.406;6.856;2023-02-01T11:40:57;12.70;;;5.53;;
3712;SDS011;1872;51.406;6.856;2023-02-01T11:46:23;10.63;;;5.53;;
3712;SDS011;1872;51.406;6.856;2023-02-01T11:48:53;11.30;;;4.90;;
3712;SDS011;1872;51.406;6.856;2023-02-01T11:56:35;8.03;;;5.70;;
3712;SDS011;1872;51.406;6.856;2023-02-01T11:59:25;10.13;;;5.80;;
3712;SDS011;1872;51.406;6.856;2023-02-01T12:02:12;13.00;;;6.50;;
3712;SDS011;1872;51.406;6.856;2023-02-01T12:04:58;12.17;;;7.00;;
3712;SDS011;1872;51.406;6.856;2023-02-01T12:10:46;9.67;;;5.90;;
3712;SDS011;1872;51.406;6.856;2023-02-01T12:16:02;13.57;;;8.70;;
3712;SDS011;1872;51.406;6.856;2023-02-01T12:18:56;11.40;;;6.13;;
3712;SDS011;1872;51.406;6.856;2023-02-01T12:27:21;10.07;;;5.60;;
3712;SDS011;1872;51.406;6.856;2023-02-01T12:35:55;12.60;;;5.80;;
3712;SDS011;1872;51.406;6.856;2023-02-01T12:38:28;12.00;;;5.50;;
3712;SDS011;1872;51.406;6.856;2023-02-01T12:41:09;16.33;;;5.83;;
3712;SDS011;1872;51.406;6.856;2023-02-01T12:46:28;9.27;;;5.10;;
3712;SDS011;1872;51.406;6.856;2023-02-01T12:49:05;7.33;;;4.57;;
3712;SDS011;1872;51.406;6.856;2023-02-01T12:51:50;9.10;;;4.30;;
3712;SDS011;1872;51.406;6.856;2023-02-01T12:54:32;13.90;;;4.70;;
3712;SDS011;1872;51.406;6.856;2023-02-01T12:57:05;7.53;;;4.80;;
3712;SDS011;1872;51.406;6.856;2023-02-01T13:02:23;7.90;;;3.70;;
3712;SDS011;1872;51.406;6.856;2023-02-01T13:08:14;13.97;;;4.20;;
3712;SDS011;1872;51.406;6.856;2023-02-01T13:10:47;6.80;;;3.37;;
3712;SDS011;1872;51.406;6.856;2023-02-01T13:13:29;13.10;;;3.30;;
3712;SDS011;1872;51.406;6.856;2023-02-01T13:18:43;9.57;;;3.30;;
3712;SDS011;1872;51.406;6.856;2023-02-01T13:21:18;9.90;;;3.40;;
3712;SDS011;1872;51.406;6.856;2023-02-01T13:23:54;8.00;;;3.20;;
3712;SDS011;1872;51.406;6.856;2023-02-01T13:26:20;6.17;;;4.17;;
3712;SDS011;1872;51.406;6.856;2023-02-01T13:28:55;13.67;;;4.07;;
3712;SDS011;1872;51.406;6.856;2023-02-01T13:42:45;9.83;;;3.50;;
3712;SDS011;1872;51.406;6.856;2023-02-01T13:45:19;9.70;;;3.67;;
3712;SDS011;1872;51.406;6.856;2023-02-01T13:47:48;8.07;;;4.17;;
3712;SDS011;1872;51.406;6.856;2023-02-01T13:50:25;6.63;;;3.80;;
3712;SDS011;1872;51.406;6.856;2023-02-01T13:52:59;9.10;;;4.07;;
3712;SDS011;1872;51.406;6.856;2023-02-01T13:55:36;6.27;;;3.33;;
3712;SDS011;1872;51.406;6.856;2023-02-01T13:58:11;11.70;;;4.10;;
3712;SDS011;1872;51.406;6.856;2023-02-01T14:00:39;8.40;;;3.73;;
3712;SDS011;1872;51.406;6.856;2023-02-01T14:03:09;10.70;;;4.00;;
3712;SDS011;1872;51.406;6.856;2023-02-01T14:11:02;9.37;;;3.60;;
3712;SDS011;1872;51.406;6.856;2023-02-01T14:23:58;9.03;;;3.50;;
3712;SDS011;1872;51.406;6.856;2023-02-01T14:26:40;11.33;;;4.23;;
3712;SDS011;1872;51.406;6.856;2023-02-01T14:31:59;9.40;;;3.50;;
3712;SDS011;1872;51.406;6.856;2023-02-01T14:37:10;15.60;;;3.93;;
3712;SDS011;1872;51.406;6.856;2023-02-01T14:55:30;10.50;;;4.07;;
3712;SDS011;1872;51.406;6.856;2023-02-01T15:01:00;13.23;;;4.60;;
3712;SDS011;1872;51.406;6.856;2023-02-01T15:06:32;9.90;;;4.17;;
3712;SDS011;1872;51.406;6.856;2023-02-01T15:09:18;5.30;;;3.60;;
3712;SDS011;1872;51.406;6.856;2023-02-01T15:11:55;10.20;;;4.27;;
3712;SDS011;1872;51.406;6.856;2023-02-01T15:14:28;11.77;;;3.93;;
3712;SDS011;1872;51.406;6.856;2023-02-01T15:16:56;9.03;;;3.97;;
3712;SDS011;1872;51.406;6.856;2023-02-01T15:19:23;6.43;;;4.43;;
3712;SDS011;1872;51.406;6.856;2023-02-01T15:21:52;8.17;;;3.93;;
3712;SDS011;1872;51.406;6.856;2023-02-01T15:24:21;7.67;;;3.83;;
3712;SDS011;1872;51.406;6.856;2023-02-01T15:26:49;5.60;;;3.60;;
3712;SDS011;1872;51.406;6.856;2023-02-01T15:29:29;7.30;;;3.70;;
3712;SDS011;1872;51.406;6.856;2023-02-01T15:31:58;11.93;;;4.13;;
3712;SDS011;1872;51.406;6.856;2023-02-01T15:34:43;10.33;;;4.20;;
3712;SDS011;1872;51.406;6.856;2023-02-01T15:37:14;10.83;;;4.23;;
3712;SDS011;1872;51.406;6.856;2023-02-01T15:42:58;9.87;;;4.40;;
3712;SDS011;1872;51.406;6.856;2023-02-01T15:45:27;8.47;;;4.10;;
3712;SDS011;1872;51.406;6.856;2023-02-01T15:47:57;9.67;;;4.50;;
3712;SDS011;1872;51.406;6.856;2023-02-01T15:50:27;11.93;;;3.83;;
3712;SDS011;1872;51.406;6.856;2023-02-01T15:52:55;9.40;;;4.90;;
3712;SDS011;1872;51.406;6.856;2023-02-01T15:58:05;6.97;;;4.20;;
3712;SDS011;1872;51.406;6.856;2023-02-01T16:00:59;8.00;;;4.63;;
3712;SDS011;1872;51.406;6.856;2023-02-01T16:03:40;10.70;;;4.83;;
3712;SDS011;1872;51.406;6.856;2023-02-01T16:09:35;7.50;;;4.43;;
3712;SDS011;1872;51.406;6.856;2023-02-01T16:11:52;7.73;;;4.47;;
3712;SDS011;1872;51.406;6.856;2023-02-01T16:14:24;7.50;;;3.70;;
3712;SDS011;1872;51.406;6.856;2023-02-01T16:16:51;9.10;;;4.80;;
3712;SDS011;1872;51.406;6.856;2023-02-01T16:19:18;9.43;;;3.80;;
3712;SDS011;1872;51.406;6.856;2023-02-01T16:21:44;7.77;;;3.83;;
3712;SDS011;1872;51.406;6.856;2023-02-01T16:24:10;6.00;;;3.50;;
3712;SDS011;1872;51.406;6.856;2023-02-01T16:26:44;10.00;;;3.97;;
3712;SDS011;1872;51.406;6.856;2023-02-01T16:29:10;9.53;;;4.30;;
3712;SDS011;1872;51.406;6.856;2023-02-01T16:31:37;8.30;;;3.63;;
3712;SDS011;1872;51.406;6.856;2023-02-01T16:34:04;17.73;;;5.03;;
3712;SDS011;1872;51.406;6.856;2023-02-01T16:36:31;10.30;;;6.10;;
3712;SDS011;1872;51.406;6.856;2023-02-01T16:39:01;9.97;;;4.43;;
3712;SDS011;1872;51.406;6.856;2023-02-01T16:41:28;10.47;;;4.10;;
3712;SDS011;1872;51.406;6.856;2023-02-01T16:43:55;6.97;;;4.20;;
3712;SDS011;1872;51.406;6.856;2023-02-01T16:46:25;6.83;;;4.13;;
3712;SDS011;1872;51.406;6.856;2023-02-01T16:48:55;7.90;;;4.10;;
3712;SDS011;1872;51.406;6.856;2023-02-01T16:51:23;6.90;;;4.20;;
3712;SDS011;1872;51.406;6.856;2023-02-01T16:53:51;10.80;;;4.17;;
3712;SDS011;1872;51.406;6.856;2023-02-01T16:56:20;7.27;;;4.37;;
3712;SDS011;1872;51.406;6.856;2023-02-01T16:58:47;8.00;;;4.70;;
3712;SDS011;1872;51.406;6.856;2023-02-01T17:01:16;8.90;;;4.97;;
3712;SDS011;1872;51.406;6.856;2023-02-01T17:03:44;6.17;;;4.40;;
3712;SDS011;1872;51.406;6.856;2023-02-01T17:06:11;7.47;;;4.77;;
3712;SDS011;1872;51.406;6.856;2023-02-01T17:08:41;7.93;;;3.97;;
3712;SDS011;1872;51.406;6.856;2023-02-01T17:11:10;10.40;;;6.23;;
3712;SDS011;1872;51.406;6.856;2023-02-01T17:13:38;8.73;;;3.97;;
3712;SDS011;1872;51.406;6.856;2023-02-01T17:16:15;9.23;;;3.67;;
3712;SDS011;1872;51.406;6.856;2023-02-01T17:19:11;11.23;;;5.40;;
3712;SDS011;1872;51.406;6.856;2023-02-01T17:21:45;12.00;;;4.80;;
3712;SDS011;1872;51.406;6.856;2023-02-01T17:24:15;6.80;;;4.00;;
3712;SDS011;1872;51.406;6.856;2023-02-01T17:26:42;11.03;;;4.53;;
3712;SDS011;1872;51.406;6.856;2023-02-01T17:29:16;10.27;;;4.30;;
3712;SDS011;1872;51.406;6.856;2023-02-01T17:31:44;5.90;;;3.60;;
3712;SDS011;1872;51.406;6.856;2023-02-01T17:34:13;7.57;;;3.77;;
3712;SDS011;1872;51.406;6.856;2023-02-01T17:36:44;9.00;;;4.63;;
3712;SDS011;1872;51.406;6.856;2023-02-01T17:39:11;9.27;;;4.57;;
3712;SDS011;1872;51.406;6.856;2023-02-01T17:42:00;12.53;;;4.80;;
3712;SDS011;1872;51.406;6.856;2023-02-01T17:44:34;8.80;;;4.27;;
3712;SDS011;1872;51.406;6.856;2023-02-01T17:46:59;8.00;;;3.80;;
3712;SDS011;1872;51.406;6.856;2023-02-01T17:49:25;7.20;;;4.50;;
3712;SDS011;1872;51.406;6.856;2023-02-01T17:51:55;12.90;;;4.13;;
3712;SDS011;1872;51.406;6.856;2023-02-01T17:54:23;11.43;;;4.30;;
3712;SDS011;1872;51.406;6.856;2023-02-01T17:56:51;7.23;;;4.10;;
3712;SDS011;1872;51.406;6.856;2023-02-01T17:59:17;6.30;;;3.93;;
3712;SDS011;1872;51.406;6.856;2023-02-01T18:01:42;10.07;;;4.77;;
3712;SDS011;1872;51.406;6.856;2023-02-01T18:04:12;5.87;;;4.00;;
3712;SDS011;1872;51.406;6.856;2023-02-01T18:06:40;9.07;;;4.20;;
3712;SDS011;1872;51.406;6.856;2023-02-01T18:09:08;12.40;;;5.07;;
3712;SDS011;1872;51.406;6.856;2023-02-01T18:11:36;11.23;;;4.50;;